createdAt,value
2023-02-24T00:02:01.756Z,98170.34
2023-02-24T00:04:09.409Z,98167.06
2023-02-24T00:06:12.051Z,98171.44
2023-02-24T00:08:13.608Z,98156.97
2023-02-24T00:10:19.171Z,98165.16
2023-02-24T00:12:20.763Z,98159.13
2023-02-24T00:14:24.730Z,98159.94
2023-02-24T00:16:27.404Z,98157.50
2023-02-24T00:18:29.093Z,98158.31
2023-02-24T00:20:33.416Z,98156.66
2023-02-24T00:22:35.045Z,98153.13
2023-02-24T00:24:37.205Z,98150.13
2023-02-24T00:26:39.947Z,98138.38
2023-02-24T00:28:41.965Z,98148.47
2023-02-24T00:30:44.127Z,98145.19
2023-02-24T00:32:46.213Z,98139.19
2023-02-24T00:34:48.248Z,98135.88
2023-02-24T00:36:49.871Z,98141.34
2023-02-24T00:38:57.445Z,98137.81
2023-02-24T00:41:00.567Z,98133.44
2023-02-24T00:43:09.721Z,98131.25
2023-02-24T00:45:11.634Z,98133.16
2023-02-24T00:47:16.401Z,98135.63
2023-02-24T00:49:20.634Z,98140.28
2023-02-24T00:51:25.408Z,98131.25
2023-02-24T00:53:29.570Z,98129.63
2023-02-24T00:55:37.644Z,98122.50
2023-02-24T00:57:41.176Z,98117.03
2023-02-24T00:59:47.818Z,98117.31
2023-02-24T01:01:51.011Z,98114.84
2023-02-24T01:03:56.350Z,98114.59
2023-02-24T01:06:03.264Z,98106.94
2023-02-24T01:08:09.544Z,98101.47
2023-02-24T01:10:12.397Z,98111.28
2023-02-24T01:12:41.758Z,98112.94
2023-02-24T01:14:46.904Z,98119.78
2023-02-24T01:16:50.456Z,98115.94
2023-02-24T01:18:52.177Z,98118.94
2023-02-24T01:20:53.869Z,98114.59
2023-02-24T01:22:57.988Z,98114.59
2023-02-24T01:24:59.426Z,98111.84
2023-02-24T01:27:03.732Z,98107.47
2023-02-24T01:29:05.492Z,98102.00
2023-02-24T01:31:07.288Z,98097.63
2023-02-24T01:33:09.340Z,98103.09
2023-02-24T01:35:12.012Z,98104.19
2023-02-24T01:37:16.438Z,98104.19
2023-02-24T01:39:18.216Z,98099.81
2023-02-24T01:41:27.751Z,98099.28
2023-02-24T01:43:29.458Z,98090.00
2023-02-24T01:45:35.410Z,98092.44
2023-02-24T01:47:38.747Z,98097.06
2023-02-24T01:49:54.713Z,98092.44
2023-02-24T01:52:04.608Z,98087.25
2023-02-24T01:54:10.834Z,98088.88
2023-02-24T01:56:13.852Z,98079.06
2023-02-24T01:58:37.164Z,98072.78
2023-02-24T02:00:45.233Z,98073.59
2023-02-24T02:02:52.467Z,98072.78
2023-02-24T02:04:58.340Z,98074.69
2023-02-24T02:07:01.215Z,98064.81
2023-02-24T02:09:08.093Z,98067.03
2023-02-24T02:11:20.435Z,98063.75
2023-02-24T02:13:24.476Z,98051.75
2023-02-24T02:15:28.735Z,98058.00
2023-02-24T02:17:51.315Z,98061.56
2023-02-24T02:20:16.076Z,98060.19
2023-02-24T02:22:50.141Z,98061.00
2023-02-24T02:25:17.087Z,98052.81
2023-02-24T02:27:39.681Z,98054.47
2023-02-24T02:30:14.088Z,98046.81
2023-02-24T02:32:55.131Z,98046.28
2023-02-24T02:35:36.961Z,98042.72
2023-02-24T02:37:58.954Z,98041.59
2023-02-24T02:40:24.188Z,98038.34
2023-02-24T02:42:35.526Z,98034.22
2023-02-24T02:45:24.639Z,98029.31
2023-02-24T02:47:52.240Z,98030.13
2023-02-24T02:50:08.205Z,98024.13
2023-02-24T02:52:17.772Z,98024.97
2023-02-24T02:54:46.744Z,98028.78
2023-02-24T02:56:56.729Z,98027.69
2023-02-24T02:59:00.449Z,98022.22
2023-02-24T03:01:07.332Z,98021.41
2023-02-24T03:03:14.767Z,98013.50
2023-02-24T03:05:22.983Z,98017.84
2023-02-24T03:07:31.277Z,98018.69
2023-02-24T03:09:39.824Z,98018.97
2023-02-24T03:11:43.285Z,98017.03
2023-02-24T03:13:49.647Z,98012.94
2023-02-24T03:15:54.865Z,98013.22
2023-02-24T03:18:10.384Z,98022.22
2023-02-24T03:20:22.768Z,98017.31
2023-02-24T03:22:34.959Z,98014.56
2023-02-24T03:24:39.092Z,98015.66
2023-02-24T03:27:20.065Z,98016.75
2023-02-24T03:29:44.799Z,98018.97
2023-02-24T03:32:13.204Z,98020.03
2023-02-24T03:34:23.981Z,98011.84
2023-02-24T03:36:25.929Z,98006.38
2023-02-24T03:38:30.704Z,98002.81
2023-02-24T03:40:36.224Z,98001.22
2023-02-24T03:42:43.374Z,98007.47
2023-02-24T03:44:45.577Z,98011.31
2023-02-24T03:46:47.903Z,98000.91
2023-02-24T03:49:01.963Z,98009.41
2023-02-24T03:51:04.442Z,98008.28
2023-02-24T03:53:27.722Z,97998.72
2023-02-24T03:56:15.997Z,98001.75
2023-02-24T03:58:36.224Z,97990.53
2023-02-24T04:00:56.181Z,97992.44
2023-02-24T04:03:26.129Z,98005.00
2023-02-24T04:05:47.628Z,98004.19
2023-02-24T04:08:02.076Z,98009.41
2023-02-24T04:10:12.813Z,98004.72
2023-02-24T04:12:29.585Z,97999.53
2023-02-24T04:14:57.802Z,97991.66
2023-02-24T04:17:21.068Z,97984.53
2023-02-24T04:19:27.635Z,97986.19
2023-02-24T04:21:34.133Z,97988.91
2023-02-24T04:23:41.908Z,97992.44
2023-02-24T04:25:48.146Z,97987.53
2023-02-24T04:27:53.533Z,97991.66
2023-02-24T04:30:00.094Z,97996.53
2023-02-24T04:32:11.699Z,97996.78
2023-02-24T04:34:19.985Z,97986.16
2023-02-24T04:36:22.314Z,97981.47
2023-02-24T04:38:24.964Z,97982.84
2023-02-24T04:40:29.447Z,97971.94
2023-02-24T04:42:30.847Z,97975.22
2023-02-24T04:44:35.016Z,97953.94
2023-02-24T04:46:36.784Z,97968.66
2023-02-24T04:48:38.995Z,97964.84
2023-02-24T04:50:43.267Z,97956.91
2023-02-24T04:52:44.875Z,97962.13
2023-02-24T04:54:46.535Z,97951.19
2023-02-24T04:56:50.774Z,97955.28
2023-02-24T04:58:52.485Z,97953.63
2023-02-24T05:00:55.738Z,97955.84
2023-02-24T05:02:57.338Z,97953.34
2023-02-24T05:04:59.396Z,97947.88
2023-02-24T05:07:01.041Z,97948.19
2023-02-24T05:09:11.096Z,97950.09
2023-02-24T05:11:18.147Z,97946.28
2023-02-24T05:13:27.112Z,97940.00
2023-02-24T05:15:32.577Z,97943.00
2023-02-24T05:17:35.278Z,97943.25
2023-02-24T05:20:08.565Z,97935.34
2023-02-24T05:22:11.770Z,97940.25
2023-02-24T05:24:17.083Z,97937.53
2023-02-24T05:26:20.522Z,97925.78
2023-02-24T05:28:23.247Z,97932.31
2023-02-24T05:30:25.063Z,97920.03
2023-02-24T05:32:26.752Z,97919.50
2023-02-24T05:34:30.654Z,97917.84
2023-02-24T05:36:36.182Z,97909.13
2023-02-24T05:38:38.768Z,97911.84
2023-02-24T05:40:46.736Z,97909.13
2023-02-24T05:42:48.404Z,97904.75
2023-02-24T05:44:49.950Z,97911.00
2023-02-24T05:46:58.331Z,97903.13
2023-02-24T05:49:02.498Z,97902.84
2023-02-24T05:51:08.061Z,97896.28
2023-02-24T05:53:09.484Z,97900.91
2023-02-24T05:55:13.984Z,97893.03
2023-02-24T05:57:21.846Z,97896.84
2023-02-24T05:59:24.330Z,97893.56
2023-02-24T06:01:30.208Z,97881.84
2023-02-24T06:03:35.500Z,97887.28
2023-02-24T06:05:39.762Z,97885.09
2023-02-24T06:07:45.816Z,97884.00
2023-02-24T06:09:53.525Z,97878.56
2023-02-24T06:11:55.267Z,97888.66
2023-02-24T06:13:57.965Z,97884.56
2023-02-24T06:15:59.578Z,97890.00
2023-02-24T06:18:01.410Z,97884.56
2023-02-24T06:20:13.501Z,97880.75
2023-02-24T06:22:19.316Z,97888.38
2023-02-24T06:24:21.006Z,97888.63
2023-02-24T06:26:23.287Z,97886.72
2023-02-24T06:28:25.195Z,97881.28
2023-02-24T06:30:27.345Z,97880.22
2023-02-24T06:32:31.781Z,97875.81
2023-02-24T06:34:33.394Z,97875.81
2023-02-24T06:36:35.097Z,97878.28
2023-02-24T06:38:37.320Z,97873.94
2023-02-24T06:40:38.893Z,97875.00
2023-02-24T06:42:40.589Z,97874.75
2023-02-24T06:44:42.262Z,97881.28
2023-02-24T06:46:43.905Z,97877.72
2023-02-24T06:48:48.003Z,97875.81
2023-02-24T06:50:53.829Z,97882.09
2023-02-24T06:53:01.061Z,97875.81
2023-02-24T06:55:04.831Z,97875.81
2023-02-24T06:57:09.901Z,97864.91
2023-02-24T06:59:21.524Z,97872.03
2023-02-24T07:01:28.707Z,97876.66
2023-02-24T07:03:39.463Z,97884.56
2023-02-24T07:05:54.167Z,97879.09
2023-02-24T07:07:57.536Z,97873.66
2023-02-24T07:09:58.998Z,97882.38
2023-02-24T07:12:02.938Z,97867.94
2023-02-24T07:14:07.741Z,97873.09
2023-02-24T07:16:11.770Z,97876.38
2023-02-24T07:18:14.845Z,97884.03
2023-02-24T07:20:25.260Z,97872.03
2023-02-24T07:22:26.898Z,97877.50
2023-02-24T07:24:36.055Z,97881.84
2023-02-24T07:26:41.665Z,97879.09
2023-02-24T07:28:44.708Z,97869.31
2023-02-24T07:30:46.322Z,97872.81
2023-02-24T07:32:48.784Z,97863.28
2023-02-24T07:34:50.634Z,97858.41
2023-02-24T07:36:53.107Z,97858.41
2023-02-24T07:38:55.880Z,97867.13
2023-02-24T07:40:58.947Z,97854.56
2023-02-24T07:43:01.435Z,97850.22
2023-02-24T07:45:04.674Z,97855.94
2023-02-24T07:47:08.405Z,97846.38
2023-02-24T07:49:15.001Z,97842.56
2023-02-24T07:51:21.089Z,97855.09
2023-02-24T07:53:22.823Z,97843.13
2023-02-24T07:55:25.808Z,97845.84
2023-02-24T07:57:28.913Z,97845.31
2023-02-24T07:59:32.903Z,97847.75
2023-02-24T08:01:39.992Z,97843.41
2023-02-24T08:03:41.851Z,97835.47
2023-02-24T08:05:46.163Z,97840.69
2023-02-24T08:07:50.714Z,97836.56
2023-02-24T08:10:14.382Z,97839.03
2023-02-24T08:12:21.699Z,97837.94
2023-02-24T08:14:34.772Z,97836.56
2023-02-24T08:16:39.695Z,97834.38
2023-02-24T08:18:43.105Z,97828.38
2023-02-24T08:20:54.022Z,97827.28
2023-02-24T08:22:56.731Z,97827.81
2023-02-24T08:25:05.866Z,97827.56
2023-02-24T08:27:07.429Z,97820.72
2023-02-24T08:29:08.877Z,97818.25
2023-02-24T08:31:12.824Z,97814.44
2023-02-24T08:33:20.907Z,97815.53
2023-02-24T08:35:27.780Z,97817.44
2023-02-24T08:37:34.414Z,97817.44
2023-02-24T08:39:36.481Z,97810.31
2023-02-24T08:41:51.210Z,97812.84
2023-02-24T08:43:52.825Z,97810.34
2023-02-24T08:46:13.228Z,97810.88
2023-02-24T08:48:26.241Z,97800.25
2023-02-24T08:50:33.752Z,97797.50
2023-02-24T08:52:35.550Z,97804.06
2023-02-24T08:54:48.026Z,97800.78
2023-02-24T08:56:49.543Z,97804.88
2023-02-24T08:58:57.188Z,97799.13
2023-02-24T09:00:59.497Z,97802.13
2023-02-24T09:03:01.047Z,97788.75
2023-02-24T09:05:07.772Z,97790.09
2023-02-24T09:07:15.328Z,97792.56
2023-02-24T09:09:22.761Z,97795.56
2023-02-24T09:11:24.371Z,97787.06
2023-02-24T09:13:33.032Z,97790.63
2023-02-24T09:15:41.283Z,97791.16
2023-02-24T09:17:44.718Z,97785.97
2023-02-24T09:19:50.998Z,97796.34
2023-02-24T09:21:52.480Z,97792.25
2023-02-24T09:23:53.968Z,97783.22
2023-02-24T09:25:56.690Z,97780.19
2023-02-24T09:28:09.202Z,97774.72
2023-02-24T09:30:31.461Z,97768.72
2023-02-24T09:32:34.684Z,97773.34
2023-02-24T09:34:44.023Z,97763.75
2023-02-24T09:37:01.345Z,97761.28
2023-02-24T09:39:02.890Z,97770.31
2023-02-24T09:41:30.065Z,97754.44
2023-02-24T09:43:44.079Z,97752.22
2023-02-24T09:46:02.205Z,97748.94
2023-02-24T09:48:16.145Z,97744.53
2023-02-24T09:50:40.717Z,97743.97
2023-02-24T09:52:42.964Z,97743.94
2023-02-24T09:55:09.654Z,97738.44
2023-02-24T09:57:17.283Z,97734.56
2023-02-24T10:00:21.874Z,97731.81
2023-02-24T10:03:00.176Z,97730.66
2023-02-24T10:05:21.929Z,97714.72
2023-02-24T10:07:38.304Z,97721.81
2023-02-24T10:09:49.623Z,97714.06
2023-02-24T10:11:55.172Z,97715.38
2023-02-24T10:14:03.436Z,97707.13
2023-02-24T10:16:11.999Z,97708.75
2023-02-24T10:18:30.874Z,97703.25
2023-02-24T10:20:44.670Z,97688.41
2023-02-24T10:23:05.032Z,97689.16
2023-02-24T10:25:54.276Z,97689.66
2023-02-24T10:28:15.210Z,97683.00
2023-02-24T10:30:41.141Z,97690.88
2023-02-24T10:32:59.305Z,97676.84
2023-02-24T10:35:02.547Z,97672.94
2023-02-24T10:37:27.741Z,97673.16
2023-02-24T10:39:33.319Z,97667.34
2023-02-24T10:41:47.073Z,97665.34
2023-02-24T10:43:58.576Z,97661.75
2023-02-24T10:46:17.223Z,97661.38
2023-02-24T10:48:42.953Z,97644.88
2023-02-24T10:50:55.331Z,97642.59
2023-02-24T10:53:07.491Z,97638.94
2023-02-24T10:55:39.179Z,97642.44
2023-02-24T10:57:59.173Z,97635.28
2023-02-24T11:00:19.778Z,97630.81
2023-02-24T11:02:30.203Z,97627.19
2023-02-24T11:04:54.268Z,97614.03
2023-02-24T11:07:09.950Z,97609.56
2023-02-24T11:09:29.691Z,97605.91
2023-02-24T11:11:54.979Z,97599.03
2023-02-24T11:14:20.594Z,97598.47
2023-02-24T11:16:40.622Z,97589.66
2023-02-24T11:18:49.883Z,97586.31
2023-02-24T11:20:55.349Z,97584.59
2023-02-24T11:22:57.710Z,97575.78
2023-02-24T11:25:06.706Z,97577.38
2023-02-24T11:27:10.915Z,97570.50
2023-02-24T11:29:38.088Z,97564.22
2023-02-24T11:32:17.269Z,97560.66
2023-02-24T11:34:24.791Z,97560.66
2023-02-24T11:36:41.436Z,97558.19
2023-02-24T11:39:25.179Z,97546.44
2023-02-24T11:41:33.554Z,97543.97
2023-02-24T11:43:39.768Z,97545.63
2023-02-24T11:45:47.170Z,97542.38
2023-02-24T11:48:01.041Z,97530.84
2023-02-24T11:50:37.023Z,97532.00
2023-02-24T11:52:43.452Z,97521.03
2023-02-24T11:54:50.791Z,97509.56
2023-02-24T11:57:00.099Z,97510.34
2023-02-24T11:59:15.937Z,97503.25
2023-02-24T12:01:31.305Z,97504.06
2023-02-24T12:03:45.917Z,97501.31
2023-02-24T12:05:53.683Z,97497.97
2023-02-24T12:08:02.740Z,97502.03
2023-02-24T12:10:17.570Z,97487.22
2023-02-24T12:12:27.715Z,97480.31
2023-02-24T12:14:39.431Z,97479.00
2023-02-24T12:16:46.066Z,97480.31
2023-02-24T12:18:56.078Z,97476.47
2023-02-24T12:21:23.642Z,97473.72
2023-02-24T12:23:40.678Z,97474.31
2023-02-24T12:25:59.243Z,97468.03
2023-02-24T12:28:33.991Z,97461.72
2023-02-24T12:31:03.282Z,97459.28
2023-02-24T12:33:35.597Z,97452.16
2023-02-24T12:35:58.055Z,97444.16
2023-02-24T12:38:26.890Z,97448.00
2023-02-24T12:40:47.940Z,97437.53
2023-02-24T12:43:04.717Z,97433.59
2023-02-24T12:45:34.319Z,97434.00
2023-02-24T12:48:02.096Z,97430.56
2023-02-24T12:50:17.987Z,97429.34
2023-02-24T12:52:45.655Z,97421.00
2023-02-24T12:54:58.121Z,97423.66
2023-02-24T12:57:17.252Z,97424.66
2023-02-24T12:59:22.648Z,97409.19
2023-02-24T13:01:40.844Z,97410.50
2023-02-24T13:04:06.617Z,97397.59
2023-02-24T13:06:18.666Z,97406.34
2023-02-24T13:08:32.126Z,97392.31
2023-02-24T13:10:45.068Z,97395.25
2023-02-24T13:12:56.224Z,97388.03
2023-02-24T13:14:57.910Z,97387.44
2023-02-24T13:17:18.750Z,97382.94
2023-02-24T13:19:26.370Z,97379.09
2023-02-24T13:21:27.936Z,97374.91
2023-02-24T13:23:31.734Z,97369.59
2023-02-24T13:25:39.539Z,97356.88
2023-02-24T13:27:43.043Z,97354.16
2023-02-24T13:29:46.839Z,97355.94
2023-02-24T13:31:52.978Z,97352.88
2023-02-24T13:33:54.806Z,97348.69
2023-02-24T13:36:23.454Z,97344.03
2023-02-24T13:38:38.874Z,97332.94
2023-02-24T13:40:40.690Z,97320.84
2023-02-24T13:43:01.128Z,97326.81
2023-02-24T13:45:19.630Z,97326.31
2023-02-24T13:47:40.523Z,97320.50
2023-02-24T13:50:07.946Z,97315.84
2023-02-24T13:52:34.542Z,97307.88
2023-02-24T13:54:58.255Z,97310.34
2023-02-24T13:57:27.642Z,97310.34
2023-02-24T13:59:58.288Z,97305.47
2023-02-24T14:02:12.504Z,97309.84
2023-02-24T14:04:24.565Z,97299.16
2023-02-24T14:06:26.887Z,97303.53
2023-02-24T14:08:47.574Z,97296.41
2023-02-24T14:10:55.190Z,97298.03
2023-02-24T14:13:17.570Z,97294.00
2023-02-24T14:15:23.115Z,97289.31
2023-02-24T14:17:30.554Z,97276.69
2023-02-24T14:19:32.042Z,97285.44
2023-02-24T14:21:33.944Z,97285.13
2023-02-24T14:23:37.266Z,97288.38
2023-02-24T14:25:39.179Z,97282.56
2023-02-24T14:27:43.854Z,97277.88
2023-02-24T14:29:45.425Z,97276.25
2023-02-24T14:31:53.765Z,97267.50
2023-02-24T14:34:01.614Z,97266.69
2023-02-24T14:36:05.929Z,97267.50
2023-02-24T14:38:27.737Z,97266.53
2023-02-24T14:40:29.726Z,97252.81
2023-02-24T14:42:31.676Z,97256.66
2023-02-24T14:44:39.825Z,97261.66
2023-02-24T14:46:56.355Z,97265.34
2023-02-24T14:48:58.407Z,97259.03
2023-02-24T14:51:05.369Z,97249.19
2023-02-24T14:53:15.104Z,97250.94
2023-02-24T14:55:26.965Z,97243.31
2023-02-24T14:57:33.458Z,97239.59
2023-02-24T14:59:39.750Z,97245.69
2023-02-24T15:01:45.411Z,97241.16
2023-02-24T15:03:51.236Z,97228.53
2023-02-24T15:05:55.622Z,97233.53
2023-02-24T15:07:58.474Z,97229.47
2023-02-24T15:10:01.409Z,97228.66
2023-02-24T15:12:21.376Z,97227.69
2023-02-24T15:14:30.967Z,97225.22
2023-02-24T15:16:39.885Z,97222.81
2023-02-24T15:18:42.224Z,97217.66
2023-02-24T15:20:43.726Z,97217.13
2023-02-24T15:22:50.142Z,97211.47
2023-02-24T15:24:54.283Z,97208.22
2023-02-24T15:26:59.084Z,97201.94
2023-02-24T15:29:34.035Z,97202.53
2023-02-24T15:31:36.342Z,97196.06
2023-02-24T15:33:53.111Z,97201.34
2023-02-24T15:35:58.337Z,97205.84
2023-02-24T15:38:01.785Z,97202.59
2023-02-24T15:40:12.647Z,97200.16
2023-02-24T15:42:28.592Z,97205.78
2023-02-24T15:44:33.200Z,97199.31
2023-02-24T15:46:36.702Z,97193.94
2023-02-24T15:48:43.309Z,97190.50
2023-02-24T15:50:44.978Z,97182.88
2023-02-24T15:52:46.808Z,97198.00
2023-02-24T15:54:48.484Z,97200.88
2023-02-24T15:56:50.307Z,97193.25
2023-02-24T15:58:52.026Z,97196.94
2023-02-24T16:00:54.199Z,97189.00
2023-02-24T16:02:55.802Z,97188.28
2023-02-24T16:04:57.490Z,97187.59
2023-02-24T16:06:59.204Z,97182.22
2023-02-24T16:09:03.313Z,97179.28
2023-02-24T16:11:05.510Z,97173.91
2023-02-24T16:13:18.571Z,97183.03
2023-02-24T16:15:33.484Z,97179.31
2023-02-24T16:17:40.991Z,97183.75
2023-02-24T16:19:44.234Z,97177.78
2023-02-24T16:21:46.334Z,97176.78
2023-02-24T16:23:48.617Z,97177.69
2023-02-24T16:25:54.162Z,97173.13
2023-02-24T16:27:58.877Z,97173.72
2023-02-24T16:30:01.003Z,97174.34
2023-02-24T16:32:02.861Z,97173.31
2023-02-24T16:34:05.805Z,97172.31
2023-02-24T16:36:12.124Z,97182.25
2023-02-24T16:38:16.258Z,97165.63
2023-02-24T16:40:23.387Z,97179.09
2023-02-24T16:42:25.144Z,97175.88
2023-02-24T16:44:26.758Z,97177.06
2023-02-24T16:46:32.833Z,97168.84
2023-02-24T16:48:37.485Z,97167.03
2023-02-24T16:50:43.222Z,97171.50
2023-02-24T16:52:45.088Z,97168.88
2023-02-24T16:54:49.659Z,97167.03
2023-02-24T16:56:52.099Z,97159.94
2023-02-24T16:58:53.749Z,97169.88
2023-02-24T17:00:59.327Z,97162.25
2023-02-24T17:03:04.211Z,97154.16
2023-02-24T17:05:06.371Z,97164.59
2023-02-24T17:07:10.739Z,97165.19
2023-02-24T17:09:15.477Z,97161.38
2023-02-24T17:11:20.111Z,97159.25
2023-02-24T17:13:22.557Z,97162.28
2023-02-24T17:15:25.038Z,97154.97
2023-02-24T17:17:29.150Z,97153.97
2023-02-24T17:19:30.885Z,97154.56
2023-02-24T17:21:32.566Z,97155.44
2023-02-24T17:23:34.053Z,97156.84
2023-02-24T17:25:35.787Z,97155.53
2023-02-24T17:27:45.872Z,97149.34
2023-02-24T17:29:50.099Z,97146.72
2023-02-24T17:31:51.903Z,97152.47
2023-02-24T17:33:53.896Z,97154.69
2023-02-24T17:35:57.486Z,97155.59
2023-02-24T17:37:58.952Z,97154.75
2023-02-24T17:40:00.949Z,97153.94
2023-02-24T17:42:02.580Z,97158.69
2023-02-24T17:44:04.555Z,97153.53
2023-02-24T17:46:07.349Z,97148.97
2023-02-24T17:48:10.124Z,97152.78
2023-02-24T17:50:12.922Z,97145.47
2023-02-24T17:52:17.826Z,97153.19
2023-02-24T17:54:19.433Z,97149.63
2023-02-24T17:56:21.569Z,97152.66
2023-02-24T17:58:23.430Z,97160.31
2023-02-24T18:00:25.054Z,97164.47
2023-02-24T18:02:26.934Z,97160.41
2023-02-24T18:04:29.231Z,97167.00
2023-02-24T18:06:30.976Z,97161.28
2023-02-24T18:08:37.264Z,97161.00
2023-02-24T18:10:39.304Z,97167.06
2023-02-24T18:12:40.939Z,97162.19
2023-02-24T18:14:42.754Z,97166.84
2023-02-24T18:16:44.795Z,97168.53
2023-02-24T18:18:46.589Z,97166.63
2023-02-24T18:20:49.221Z,97160.13
2023-02-24T18:22:50.875Z,97174.06
2023-02-24T18:25:01.786Z,97170.00
2023-02-24T18:27:03.338Z,97181.53
2023-02-24T18:29:05.486Z,97177.16
2023-02-24T18:31:16.331Z,97178.84
2023-02-24T18:33:18.494Z,97181.59
2023-02-24T18:35:21.925Z,97184.91
2023-02-24T18:37:23.837Z,97189.53
2023-02-24T18:39:25.422Z,97196.94
2023-02-24T18:41:27.265Z,97194.50
2023-02-24T18:43:32.452Z,97201.34
2023-02-24T18:45:37.944Z,97198.09
2023-02-24T18:47:39.547Z,97208.50
2023-02-24T18:49:41.185Z,97214.56
2023-02-24T18:51:43.299Z,97215.13
2023-02-24T18:53:45.389Z,97221.16
2023-02-24T18:55:47.215Z,97223.38
2023-02-24T18:57:51.940Z,97219.63
2023-02-24T18:59:54.004Z,97229.22
2023-02-24T19:01:57.125Z,97239.31
2023-02-24T19:03:59.741Z,97230.09
2023-02-24T19:06:01.215Z,97239.66
2023-02-24T19:08:03.271Z,97222.56
2023-02-24T19:10:07.952Z,97226.94
2023-02-24T19:12:09.782Z,97237.63
2023-02-24T19:14:13.803Z,97236.88
2023-02-24T19:16:16.905Z,97236.41
2023-02-24T19:18:18.596Z,97233.44
2023-02-24T19:20:20.997Z,97235.91
2023-02-24T19:22:22.947Z,97241.19
2023-02-24T19:24:24.703Z,97231.16
2023-02-24T19:26:27.277Z,97231.19
2023-02-24T19:28:29.112Z,97238.06
2023-02-24T19:30:31.830Z,97223.66
2023-02-24T19:32:34.139Z,97231.31
2023-02-24T19:34:37.052Z,97231.38
2023-02-24T19:36:41.687Z,97234.13
2023-02-24T19:38:43.518Z,97236.91
2023-02-24T19:40:45.280Z,97239.38
2023-02-24T19:42:49.319Z,97245.38
2023-02-24T19:44:51.553Z,97235.34
2023-02-24T19:46:53.194Z,97235.69
2023-02-24T19:48:56.581Z,97236.78
2023-02-24T19:50:58.273Z,97230.81
2023-02-24T19:52:59.867Z,97237.34
2023-02-24T19:55:01.631Z,97230.03
2023-02-24T19:57:03.495Z,97240.41
2023-02-24T19:59:07.803Z,97238.53
2023-02-24T20:01:15.391Z,97231.19
2023-02-24T20:03:19.200Z,97239.38
2023-02-24T20:05:24.835Z,97224.72
2023-02-24T20:07:26.561Z,97229.09
2023-02-24T20:09:28.208Z,97228.56
2023-02-24T20:11:30.301Z,97225.59
2023-02-24T20:13:32.255Z,97222.31
2023-02-24T20:15:35.966Z,97228.31
2023-02-24T20:17:37.867Z,97224.25
2023-02-24T20:19:40.114Z,97218.53
2023-02-24T20:21:42.338Z,97219.09
2023-02-24T20:23:44.224Z,97218.56
2023-02-24T20:25:52.565Z,97220.22
2023-02-24T20:27:54.378Z,97224.31
2023-02-24T20:29:56.593Z,97219.69
2023-02-24T20:31:59.265Z,97213.72
2023-02-24T20:34:06.393Z,97217.28
2023-02-24T20:36:13.867Z,97227.63
2023-02-24T20:38:15.841Z,97223.84
2023-02-24T20:40:18.718Z,97220.06
2023-02-24T20:42:22.895Z,97220.59
2023-02-24T20:44:24.879Z,97217.34
2023-02-24T20:46:29.603Z,97224.16
2023-02-24T20:48:35.790Z,97220.63
2023-02-24T20:50:37.352Z,97225.25
2023-02-24T20:52:40.057Z,97227.44
2023-02-24T20:54:43.286Z,97226.09
2023-02-24T20:56:46.044Z,97229.63
2023-02-24T20:58:53.580Z,97221.50
2023-02-24T21:00:57.996Z,97220.16
2023-02-24T21:03:00.356Z,97224.75
2023-02-24T21:05:02.473Z,97223.41
2023-02-24T21:07:04.140Z,97220.16
2023-02-24T21:09:06.172Z,97223.41
2023-02-24T21:11:11.200Z,97226.44
2023-02-24T21:13:13.060Z,97225.06
2023-02-24T21:15:14.715Z,97223.19
2023-02-24T21:17:16.365Z,97226.44
2023-02-24T21:19:23.226Z,97226.16
2023-02-24T21:21:26.167Z,97224.00
2023-02-24T21:23:29.157Z,97216.94
2023-02-24T21:25:30.681Z,97220.22
2023-02-24T21:27:32.210Z,97216.66
2023-02-24T21:29:33.764Z,97215.31
2023-02-24T21:31:35.363Z,97219.13
2023-02-24T21:33:37.555Z,97215.06
2023-02-24T21:35:39.184Z,97212.59
2023-02-24T21:37:41.150Z,97211.78
2023-02-24T21:39:45.901Z,97215.59
2023-02-24T21:41:47.679Z,97214.25
2023-02-24T21:43:52.641Z,97209.91
2023-02-24T21:45:54.349Z,97206.66
2023-02-24T21:47:56.149Z,97206.66
2023-02-24T21:49:57.729Z,97209.91
2023-02-24T21:52:03.209Z,97210.44
2023-02-24T21:54:05.042Z,97208.84
2023-02-24T21:56:17.283Z,97212.09
2023-02-24T21:58:18.940Z,97202.84
2023-02-24T22:00:20.987Z,97194.69
2023-02-24T22:02:25.923Z,97206.91
2023-02-24T22:04:28.112Z,97199.03
2023-02-24T22:06:32.008Z,97202.28
2023-02-24T22:08:33.607Z,97209.09
2023-02-24T22:10:36.431Z,97204.75
2023-02-24T22:12:38.156Z,97197.97
2023-02-24T22:14:46.014Z,97195.78
2023-02-24T22:16:47.598Z,97192.53
2023-02-24T22:18:51.168Z,97191.97
2023-02-24T22:20:52.738Z,97185.75
2023-02-24T22:22:54.268Z,97186.53
2023-02-24T22:24:56.053Z,97182.47
2023-02-24T22:26:57.626Z,97185.47
2023-02-24T22:29:00.294Z,97181.38
2023-02-24T22:31:04.994Z,97187.34
2023-02-24T22:33:07.637Z,97183.81
2023-02-24T22:35:09.460Z,97185.47
2023-02-24T22:37:10.947Z,97183.81
2023-02-24T22:39:16.581Z,97182.75
2023-02-24T22:41:21.780Z,97186.53
2023-02-24T22:43:35.175Z,97185.47
2023-02-24T22:45:36.983Z,97193.31
2023-02-24T22:47:38.672Z,97177.84
2023-02-24T22:49:40.369Z,97199.59
2023-02-24T22:51:45.712Z,97194.16
2023-02-24T22:53:50.171Z,97187.09
2023-02-24T22:55:52.256Z,97178.66
2023-02-24T22:57:53.816Z,97184.91
2023-02-24T22:59:56.138Z,97187.88
2023-02-24T23:01:57.797Z,97194.97
2023-02-24T23:04:03.128Z,97187.88
2023-02-24T23:06:10.560Z,97196.34
2023-02-24T23:08:12.202Z,97191.72
2023-02-24T23:10:16.312Z,97183.56
2023-02-24T23:12:17.720Z,97197.41
2023-02-24T23:14:20.681Z,97190.91
2023-02-24T23:16:27.549Z,97192.78
2023-02-24T23:18:30.284Z,97197.16
2023-02-24T23:20:32.407Z,97201.75
2023-02-24T23:22:34.038Z,97204.19
2023-02-24T23:24:36.160Z,97196.34
2023-02-24T23:26:57.703Z,97203.41
2023-02-24T23:29:03.111Z,97205.00
2023-02-24T23:31:05.053Z,97212.91
2023-02-24T23:33:06.549Z,97217.78
2023-02-24T23:35:08.484Z,97214.53
2023-02-24T23:37:12.036Z,97216.44
2023-02-24T23:39:16.411Z,97217.53
2023-02-24T23:41:19.290Z,97213.72
2023-02-24T23:43:20.965Z,97221.59
2023-02-24T23:45:24.100Z,97226.50
2023-02-24T23:47:25.644Z,97225.69
2023-02-24T23:49:42.361Z,97227.59
2023-02-24T23:51:52.111Z,97236.28
2023-02-24T23:53:53.753Z,97229.22
2023-02-24T23:55:57.973Z,97239.28
2023-02-24T23:58:00.355Z,97245.78
